РУС

ENG

 
  Pireps - S7
 

Рейс SBI2126

  • Выполнял: Anton Molchanov
  • Аэропорт отправления: Domodedovo Airport (UUDD)
  • Аэропорт назначения: Minsk (UMMS)
  • Тип ВС: A320-214 (VQ-BRG)
  • Время полёта: 01.20
  • Дата полёта: 22.02.2021
  • Маршрут: FP
  • Статус: Одобрен

Детали полёта
Gross Revenue:
(130 load / $ 315.00 per unit
$ 40, 950.00
Fuel Cost:
(3663 fuel used @ 5.1 / unit)
$ 18, 681.30


Дополнительная информация о полёте:

Лог

Aircraft Used in flight is Airbus A320 Airbus Industries F-WWBA
15:24Flaps 3 Selected at 600ft and 0kts
15:24 Boarding
15:24 Engine 1 Started
15:24 Engine 2 Started
15:24 Navigation Lights ON at 600 AGL
15:24 Taxi Lights ON at 600 AGL
15:24 Beacon Lights ON at 600 AGL
15:24 Brakes are On
15:24 Brakes are Released
15:25 Landing Lights ON at 600 AGL
15:25 Strobe Lights ON at 600 AGL
15:27 You Took off @ 156 Knots and Flaps at Position 3
Departure Weather
UUDD 220800Z 08004MPS 7000 -SN SCT039 M13/M17 Q1025 R88/450237 TEMPO 2000 SN
15:27 TOC Reached
15:27 Landing Gear Up @ 169 Knots and 680 Feet
15:27 Taxi Lights OFF at 710 AGL
15:27Flaps 2 Selected at 2210ft and 194kts
15:28Flaps Retracted at 2440ft and 196kts
15:31 Below 10000 feet you are not allowed to go over 250 knots
15:34 Landing Lights OFF at 9980 AGL
16:23 Landing Lights ON at 9820 AGL
16:33 You exceeded maximum bank angle
16:35Flaps 1 Selected at 3040ft and 207kts
16:40Flaps 2 Selected at 2810ft and 192kts
16:40Flaps 3 Selected at 2810ft and 192kts
16:40 Landing Gear Down @ 178 Knots and 2600 Feet
16:41Flaps 4 Selected at 2370ft and 166kts
16:41 Taxi Lights ON at 2320 AGL
16:41Flaps 5 Selected at 2290ft and 157kts
16:43 You Landed @ 132 Knots and with -150 Vertical Speed
Arrival Weather
UMMS 220800Z 18002MPS 2800 BR NSC M01/M02 Q1022 R13L/310148 R13R/////// NOSIG
16:44 Landing Lights OFF at 680 AGL
16:44 Strobe Lights OFF at 680 AGL
16:44 Taxiing to gate
16:44Flaps Retracted at 680ft and 20kts
16:44 Brakes are On
Pirep logged with S7 Tracking 1.0.0.14



Общая оценка полета : 100%




Route Map



 
 
   
 
Новости

03.09.2020 - Полеты в MFS 2020

Спешим сообщить вам, что теперь наш S7 Pad поддерживается для полетов в новом симуляторе MFS 2020. В разделе Загрузки вы найдете FSUIPC7.rar
Инструкция для запуска прилагается!

   
 
Авторизация






Регистрация

Восстановить пароль?

Мы в соц. сетях

      



   
 





   
 


   
 


Яндекс.Метрика

www.va-s7.ru 2011-2021
Все права защищены.



Минуточку внимания!
Сайт va-s7.ru не является коммерческим проектом. Мы не имеем отношения к торговым маркам "S7" и "Globus" и их представителям.
Эмблемы на сайте являются собственностью соответствующих компаний.

аэронавигационная метеорологическая и любая другая информация с данного ресурса ни в коем случае не должна использоваться для реальных полетов